createdAt,value
2023-05-05T00:00:36.336Z,11.42
2023-05-05T00:01:31.575Z,11.39
2023-05-05T00:02:27.687Z,11.37
2023-05-05T00:03:22.597Z,11.36
2023-05-05T00:04:17.794Z,11.34
2023-05-05T00:05:12.876Z,11.36
2023-05-05T00:06:08.176Z,11.38
2023-05-05T00:07:03.642Z,11.40
2023-05-05T00:07:58.877Z,11.40
2023-05-05T00:08:54.023Z,11.40
2023-05-05T00:09:49.987Z,11.42
2023-05-05T00:10:45.019Z,11.41
2023-05-05T00:11:40.292Z,11.39
2023-05-05T00:12:35.692Z,11.36
2023-05-05T00:13:30.637Z,11.34
2023-05-05T00:14:25.650Z,11.31
2023-05-05T00:15:20.781Z,11.31
2023-05-05T00:16:15.786Z,11.29
2023-05-05T00:17:11.198Z,11.26
2023-05-05T00:18:05.898Z,11.25
2023-05-05T00:19:00.994Z,11.22
2023-05-05T00:19:56.073Z,11.20
2023-05-05T00:20:51.141Z,11.16
2023-05-05T00:21:46.321Z,11.15
2023-05-05T00:22:41.273Z,11.16
2023-05-05T00:23:36.266Z,11.16
2023-05-05T00:24:31.391Z,11.12
2023-05-05T00:25:26.615Z,11.12
2023-05-05T00:26:21.615Z,11.09
2023-05-05T00:27:16.834Z,11.10
2023-05-05T00:28:11.774Z,11.09
2023-05-05T00:29:06.765Z,11.05
2023-05-05T00:30:01.883Z,11.03
2023-05-05T00:30:56.858Z,11.02
2023-05-05T00:31:52.032Z,10.98
2023-05-05T00:32:47.043Z,10.97
2023-05-05T00:33:42.013Z,10.97
2023-05-05T00:34:37.085Z,10.96
2023-05-05T00:35:32.230Z,10.97
2023-05-05T00:36:28.178Z,10.97
2023-05-05T00:37:23.420Z,10.99
2023-05-05T00:38:18.749Z,10.97
2023-05-05T00:39:14.869Z,10.93
2023-05-05T00:40:10.207Z,10.91
2023-05-05T00:41:05.908Z,10.94
2023-05-05T00:42:01.249Z,10.97
2023-05-05T00:42:56.515Z,10.97
2023-05-05T00:43:52.187Z,10.97
2023-05-05T00:44:47.419Z,10.95
2023-05-05T00:45:43.238Z,10.94
2023-05-05T00:46:38.625Z,10.93
2023-05-05T00:47:33.744Z,10.92
2023-05-05T00:48:29.445Z,10.91
2023-05-05T00:49:24.700Z,10.90
2023-05-05T00:50:19.921Z,10.90
2023-05-05T00:51:16.147Z,10.92
2023-05-05T00:52:11.403Z,10.90
2023-05-05T00:53:07.128Z,10.91
2023-05-05T00:54:02.367Z,10.89
2023-05-05T00:54:57.453Z,10.85
2023-05-05T00:55:53.277Z,10.83
2023-05-05T00:56:48.732Z,10.81
2023-05-05T00:57:44.421Z,10.81
2023-05-05T00:58:39.580Z,10.78
2023-05-05T00:59:34.853Z,10.76
2023-05-05T01:00:30.572Z,10.76
2023-05-05T01:01:25.860Z,10.75
2023-05-05T01:02:20.991Z,10.72
2023-05-05T01:03:17.455Z,10.71
2023-05-05T01:04:12.562Z,10.70
2023-05-05T01:05:08.394Z,10.70
2023-05-05T01:06:03.480Z,10.68
2023-05-05T01:06:58.915Z,10.68
2023-05-05T01:07:54.642Z,10.71
2023-05-05T01:08:49.889Z,10.74
2023-05-05T01:09:45.797Z,10.70
2023-05-05T01:10:40.924Z,10.66
2023-05-05T01:11:36.477Z,10.61
2023-05-05T01:12:32.220Z,10.56
2023-05-05T01:13:27.377Z,10.53
2023-05-05T01:14:22.736Z,10.49
2023-05-05T01:15:18.780Z,10.41
2023-05-05T01:16:14.071Z,10.36
2023-05-05T01:17:09.976Z,10.35
2023-05-05T01:18:05.088Z,10.38
2023-05-05T01:19:00.429Z,10.40
2023-05-05T01:19:56.185Z,10.42
2023-05-05T01:20:51.432Z,10.43
2023-05-05T01:21:47.231Z,10.43
2023-05-05T01:22:42.597Z,10.42
2023-05-05T01:23:37.887Z,10.39
2023-05-05T01:24:33.564Z,10.38
2023-05-05T01:25:28.828Z,10.39
2023-05-05T01:26:24.000Z,10.40
2023-05-05T01:27:20.648Z,10.41
2023-05-05T01:28:15.767Z,10.38
2023-05-05T01:29:11.529Z,10.36
2023-05-05T01:30:06.934Z,10.34
2023-05-05T01:31:01.933Z,10.33
2023-05-05T01:31:57.985Z,10.32
2023-05-05T01:32:53.010Z,10.32
2023-05-05T01:33:48.748Z,10.32
2023-05-05T01:34:43.989Z,10.31
2023-05-05T01:35:39.189Z,10.31
2023-05-05T01:36:34.419Z,10.33
2023-05-05T01:37:29.678Z,10.34
2023-05-05T01:38:25.972Z,10.36
2023-05-05T01:39:21.189Z,10.44
2023-05-05T01:40:17.082Z,10.46
2023-05-05T01:41:12.157Z,10.47
2023-05-05T01:42:07.748Z,10.46
2023-05-05T01:43:03.224Z,10.44
2023-05-05T01:43:58.463Z,10.42
2023-05-05T01:44:54.257Z,10.43
2023-05-05T01:45:49.567Z,10.41
2023-05-05T01:46:44.751Z,10.40
2023-05-05T01:47:40.649Z,10.39
2023-05-05T01:48:35.588Z,10.38
2023-05-05T01:49:30.850Z,10.39
2023-05-05T01:50:27.056Z,10.44
2023-05-05T01:51:22.375Z,10.48
2023-05-05T01:52:18.294Z,10.50
2023-05-05T01:53:13.407Z,10.48
2023-05-05T01:54:08.610Z,10.46
2023-05-05T01:55:03.886Z,10.43
2023-05-05T01:55:59.115Z,10.40
2023-05-05T01:56:54.255Z,10.41
2023-05-05T01:57:49.514Z,10.41
2023-05-05T01:58:45.347Z,10.41
2023-05-05T01:59:40.560Z,10.39
2023-05-05T02:00:35.882Z,10.37
2023-05-05T02:01:31.598Z,10.35
2023-05-05T02:02:27.026Z,10.36
2023-05-05T02:03:22.094Z,10.40
2023-05-05T02:04:17.143Z,10.38
2023-05-05T02:05:12.175Z,10.34
2023-05-05T02:06:07.306Z,10.31
2023-05-05T02:07:02.443Z,10.29
2023-05-05T02:07:57.643Z,10.29
2023-05-05T02:08:52.516Z,10.28
2023-05-05T02:09:47.604Z,10.30
2023-05-05T02:10:42.876Z,10.30
2023-05-05T02:11:38.077Z,10.29
2023-05-05T02:12:33.386Z,10.27
2023-05-05T02:13:28.196Z,10.29
2023-05-05T02:14:23.258Z,10.29
2023-05-05T02:15:18.313Z,10.31
2023-05-05T02:16:13.711Z,10.24
2023-05-05T02:17:08.621Z,10.24
2023-05-05T02:18:03.953Z,10.23
2023-05-05T02:18:58.805Z,10.26
2023-05-05T02:19:53.986Z,10.28
2023-05-05T02:20:48.956Z,10.31
2023-05-05T02:21:44.021Z,10.29
2023-05-05T02:22:39.226Z,10.31
2023-05-05T02:23:34.233Z,10.31
2023-05-05T02:24:29.206Z,10.28
2023-05-05T02:25:24.436Z,10.28
2023-05-05T02:26:19.259Z,10.28
2023-05-05T02:27:18.682Z,10.28
2023-05-05T02:28:13.693Z,10.24
2023-05-05T02:29:08.796Z,10.21
2023-05-05T02:30:03.748Z,10.20
2023-05-05T02:30:59.035Z,10.18
2023-05-05T02:31:54.185Z,10.17
2023-05-05T02:32:49.438Z,10.18
2023-05-05T02:33:44.213Z,10.20
2023-05-05T02:34:39.362Z,10.23
2023-05-05T02:35:34.444Z,10.23
2023-05-05T02:36:29.567Z,10.20
2023-05-05T02:37:24.708Z,10.17
2023-05-05T02:38:19.683Z,10.10
2023-05-05T02:39:14.661Z,10.09
2023-05-05T02:40:09.961Z,10.05
2023-05-05T02:41:04.859Z,9.99
2023-05-05T02:42:00.154Z,9.96
2023-05-05T02:42:54.994Z,9.98
2023-05-05T02:43:52.561Z,10.00
2023-05-05T02:44:47.568Z,10.02
2023-05-05T02:45:42.655Z,10.05
2023-05-05T02:46:37.797Z,10.06
2023-05-05T02:47:33.002Z,10.04
2023-05-05T02:48:27.944Z,10.02
2023-05-05T02:49:23.065Z,9.99
2023-05-05T02:50:18.226Z,9.97
2023-05-05T02:51:14.047Z,9.92
2023-05-05T02:52:09.325Z,9.90
2023-05-05T02:53:04.311Z,9.86
2023-05-05T02:53:59.518Z,9.85
2023-05-05T02:54:54.667Z,9.87
2023-05-05T02:55:49.816Z,9.89
2023-05-05T02:56:45.021Z,9.92
2023-05-05T02:57:40.334Z,9.94
2023-05-05T02:58:35.596Z,9.97
2023-05-05T02:59:33.153Z,9.97
2023-05-05T03:00:28.320Z,9.96
2023-05-05T03:01:23.539Z,10.00
2023-05-05T03:02:18.979Z,10.02
2023-05-05T03:03:14.233Z,10.02
2023-05-05T03:04:09.306Z,10.03
2023-05-05T03:05:04.366Z,10.04
2023-05-05T03:05:59.590Z,10.04
2023-05-05T03:06:54.697Z,10.02
2023-05-05T03:07:50.794Z,10.05
2023-05-05T03:08:45.862Z,10.09
2023-05-05T03:09:41.782Z,10.17
2023-05-05T03:10:36.909Z,10.22
2023-05-05T03:11:32.336Z,10.25
2023-05-05T03:12:28.061Z,10.28
2023-05-05T03:13:23.211Z,10.32
2023-05-05T03:14:18.514Z,10.34
2023-05-05T03:15:14.738Z,10.33
2023-05-05T03:16:09.960Z,10.30
2023-05-05T03:17:05.809Z,10.30
2023-05-05T03:18:00.913Z,10.31
2023-05-05T03:18:56.146Z,10.29
2023-05-05T03:19:51.938Z,10.29
2023-05-05T03:20:47.336Z,10.33
2023-05-05T03:21:42.978Z,10.36
2023-05-05T03:22:38.375Z,10.38
2023-05-05T03:23:33.419Z,10.39
2023-05-05T03:24:29.241Z,10.38
2023-05-05T03:25:24.352Z,10.38
2023-05-05T03:26:19.627Z,10.37
2023-05-05T03:27:15.880Z,10.34
2023-05-05T03:28:11.321Z,10.30
2023-05-05T03:29:06.919Z,10.26
2023-05-05T03:30:02.226Z,10.24
2023-05-05T03:30:57.334Z,10.21
2023-05-05T03:31:53.235Z,10.18
2023-05-05T03:32:48.619Z,10.17
2023-05-05T03:33:44.297Z,10.15
2023-05-05T03:34:39.449Z,10.12
2023-05-05T03:35:34.730Z,10.10
2023-05-05T03:36:30.602Z,10.04
2023-05-05T03:37:25.890Z,10.02
2023-05-05T03:38:21.484Z,9.97
2023-05-05T03:39:17.418Z,9.93
2023-05-05T03:40:12.528Z,9.89
2023-05-05T03:41:08.383Z,9.88
2023-05-05T03:42:03.629Z,9.88
2023-05-05T03:42:58.943Z,9.86
2023-05-05T03:43:54.641Z,9.85
2023-05-05T03:44:49.885Z,9.85
2023-05-05T03:45:45.709Z,9.87
2023-05-05T03:46:40.899Z,9.90
2023-05-05T03:47:36.294Z,9.93
2023-05-05T03:48:32.052Z,9.93
2023-05-05T03:49:27.260Z,9.94
2023-05-05T03:50:22.532Z,9.94
2023-05-05T03:51:18.712Z,9.92
2023-05-05T03:52:15.057Z,9.90
2023-05-05T03:53:09.827Z,9.88
2023-05-05T03:54:05.149Z,9.88
2023-05-05T03:55:00.239Z,9.91
2023-05-05T03:55:56.091Z,9.92
2023-05-05T03:56:51.383Z,9.94
2023-05-05T03:57:47.252Z,9.91
2023-05-05T03:58:42.467Z,9.91
2023-05-05T03:59:37.825Z,9.91
2023-05-05T04:00:33.590Z,9.92
2023-05-05T04:01:29.033Z,9.93
2023-05-05T04:02:24.252Z,9.93
2023-05-05T04:03:20.737Z,9.93
2023-05-05T04:04:15.904Z,9.95
2023-05-05T04:05:11.695Z,9.98
2023-05-05T04:06:06.972Z,10.04
2023-05-05T04:07:02.318Z,10.08
2023-05-05T04:07:57.634Z,10.11
2023-05-05T04:08:52.836Z,10.08
2023-05-05T04:09:47.666Z,10.08
2023-05-05T04:10:42.730Z,10.05
2023-05-05T04:11:37.811Z,9.99
2023-05-05T04:12:37.441Z,9.96
2023-05-05T04:13:27.980Z,9.92
2023-05-05T04:14:22.836Z,9.92
2023-05-05T04:15:17.918Z,9.91
2023-05-05T04:16:13.106Z,9.90
2023-05-05T04:17:07.975Z,9.91
2023-05-05T04:18:03.120Z,9.91
2023-05-05T04:19:01.644Z,9.92
2023-05-05T04:19:56.770Z,9.96
2023-05-05T04:20:51.756Z,9.97
2023-05-05T04:21:46.934Z,9.96
2023-05-05T04:22:42.112Z,9.98
2023-05-05T04:23:37.082Z,9.95
2023-05-05T04:24:32.109Z,9.92
2023-05-05T04:25:27.316Z,9.91
2023-05-05T04:26:22.417Z,9.91
2023-05-05T04:27:17.572Z,9.92
2023-05-05T04:28:12.425Z,9.95
2023-05-05T04:29:07.836Z,9.96
2023-05-05T04:30:03.485Z,10.01
2023-05-05T04:30:58.955Z,10.02
2023-05-05T04:31:54.401Z,9.99
2023-05-05T04:32:49.881Z,9.94
2023-05-05T04:33:44.692Z,9.90
2023-05-05T04:34:39.742Z,9.91
2023-05-05T04:35:34.727Z,9.94
2023-05-05T04:36:29.747Z,9.96
2023-05-05T04:37:24.933Z,9.98
2023-05-05T04:38:19.940Z,10.04
2023-05-05T04:39:14.904Z,10.08
2023-05-05T04:40:10.147Z,10.13
2023-05-05T04:41:04.896Z,10.16
2023-05-05T04:42:00.041Z,10.21
2023-05-05T04:42:55.302Z,10.25
2023-05-05T04:43:50.232Z,10.29
2023-05-05T04:44:45.191Z,10.35
2023-05-05T04:45:40.370Z,10.42
2023-05-05T04:46:35.360Z,10.47
2023-05-05T04:47:30.480Z,10.51
2023-05-05T04:48:25.656Z,10.55
2023-05-05T04:49:20.656Z,10.60
2023-05-05T04:50:15.801Z,10.64
2023-05-05T04:51:10.802Z,10.68
2023-05-05T04:52:07.851Z,10.75
2023-05-05T04:53:03.118Z,10.79
2023-05-05T04:53:58.076Z,10.83
2023-05-05T04:54:52.995Z,10.87
2023-05-05T04:55:48.142Z,10.88
2023-05-05T04:56:43.118Z,10.90
2023-05-05T04:57:38.279Z,10.93
2023-05-05T04:58:33.289Z,10.98
2023-05-05T04:59:28.390Z,11.04
2023-05-05T05:00:23.491Z,11.08
2023-05-05T05:01:19.824Z,11.11
2023-05-05T05:02:15.219Z,11.12
2023-05-05T05:03:11.222Z,11.13
2023-05-05T05:04:06.427Z,11.15
2023-05-05T05:05:01.788Z,11.14
2023-05-05T05:05:57.501Z,11.15
2023-05-05T05:06:52.886Z,11.19
2023-05-05T05:07:48.948Z,11.24
2023-05-05T05:08:44.181Z,11.29
2023-05-05T05:09:39.543Z,11.31
2023-05-05T05:10:35.379Z,11.34
2023-05-05T05:11:30.840Z,11.41
2023-05-05T05:12:26.559Z,11.45
2023-05-05T05:13:22.596Z,11.50
2023-05-05T05:14:17.913Z,11.52
2023-05-05T05:15:13.678Z,11.57
2023-05-05T05:16:09.141Z,11.65
2023-05-05T05:17:04.510Z,11.71
2023-05-05T05:18:00.561Z,11.78
2023-05-05T05:18:55.763Z,11.85
2023-05-05T05:19:51.650Z,11.92
2023-05-05T05:20:46.805Z,11.99
2023-05-05T05:21:42.379Z,12.07
2023-05-05T05:22:38.055Z,12.15
2023-05-05T05:23:33.593Z,12.26
2023-05-05T05:24:28.933Z,12.33
2023-05-05T05:25:25.357Z,12.40
2023-05-05T05:26:20.729Z,12.46
2023-05-05T05:27:16.851Z,12.52
2023-05-05T05:28:12.106Z,12.58
2023-05-05T05:29:07.650Z,12.62
2023-05-05T05:30:03.330Z,12.66
2023-05-05T05:30:58.708Z,12.70
2023-05-05T05:31:54.590Z,12.76
2023-05-05T05:32:50.105Z,12.80
2023-05-05T05:33:45.337Z,12.84
2023-05-05T05:34:41.241Z,12.86
2023-05-05T05:35:36.513Z,12.91
2023-05-05T05:36:31.907Z,12.95
2023-05-05T05:37:28.350Z,12.99
2023-05-05T05:38:23.622Z,13.05
2023-05-05T05:39:19.407Z,13.12
2023-05-05T05:40:14.835Z,13.16
2023-05-05T05:41:10.198Z,13.20
2023-05-05T05:42:06.106Z,13.23
2023-05-05T05:43:01.446Z,13.27
2023-05-05T05:43:56.945Z,13.32
2023-05-05T05:44:51.968Z,13.35
2023-05-05T05:45:47.167Z,13.33
2023-05-05T05:46:42.134Z,13.33
2023-05-05T05:47:37.305Z,13.39
2023-05-05T05:48:32.244Z,13.41
2023-05-05T05:49:27.400Z,13.42
2023-05-05T05:50:22.386Z,13.47
2023-05-05T05:51:17.538Z,13.51
2023-05-05T05:52:12.542Z,13.52
2023-05-05T05:53:09.667Z,13.55
2023-05-05T05:54:04.629Z,13.56
2023-05-05T05:54:59.658Z,13.61
2023-05-05T05:55:54.633Z,13.66
2023-05-05T05:56:49.819Z,13.72
2023-05-05T05:57:44.791Z,13.76
2023-05-05T05:58:39.836Z,13.81
2023-05-05T05:59:34.817Z,13.86
2023-05-05T06:00:29.923Z,13.91
2023-05-05T06:01:25.142Z,13.98
2023-05-05T06:02:20.851Z,14.01
2023-05-05T06:03:16.170Z,14.07
2023-05-05T06:04:12.007Z,14.12
2023-05-05T06:05:07.332Z,14.15
2023-05-05T06:06:02.692Z,14.25
2023-05-05T06:06:58.513Z,14.34
2023-05-05T06:07:53.905Z,14.43
2023-05-05T06:08:49.552Z,14.46
2023-05-05T06:09:44.943Z,14.40
2023-05-05T06:10:39.894Z,14.36
2023-05-05T06:11:34.989Z,14.29
2023-05-05T06:12:30.266Z,14.25
2023-05-05T06:13:25.105Z,14.31
2023-05-05T06:14:20.238Z,14.35
2023-05-05T06:15:15.174Z,14.43
2023-05-05T06:16:10.147Z,14.51
2023-05-05T06:17:05.209Z,14.59
2023-05-05T06:18:00.291Z,14.64
2023-05-05T06:18:55.322Z,14.67
2023-05-05T06:19:50.413Z,14.72
2023-05-05T06:20:45.787Z,14.87
2023-05-05T06:21:41.657Z,14.98
2023-05-05T06:22:36.869Z,15.11
2023-05-05T06:23:32.277Z,15.23
2023-05-05T06:24:28.088Z,15.32
2023-05-05T06:25:23.330Z,15.39
2023-05-05T06:26:19.281Z,15.45
2023-05-05T06:27:14.592Z,15.50
2023-05-05T06:28:09.854Z,15.60
2023-05-05T06:29:05.514Z,15.71
2023-05-05T06:30:01.049Z,15.80
2023-05-05T06:30:56.373Z,15.79
2023-05-05T06:31:52.908Z,15.82
2023-05-05T06:32:48.189Z,15.83
2023-05-05T06:33:44.136Z,15.85
2023-05-05T06:34:39.536Z,15.81
2023-05-05T06:35:34.890Z,15.79
2023-05-05T06:36:31.016Z,15.80
2023-05-05T06:37:26.046Z,15.84
2023-05-05T06:38:21.919Z,15.87
2023-05-05T06:39:17.139Z,15.91
2023-05-05T06:40:12.476Z,15.90
2023-05-05T06:41:08.251Z,15.99
2023-05-05T06:42:03.740Z,16.08
2023-05-05T06:42:59.126Z,16.18
2023-05-05T06:43:55.352Z,16.30
2023-05-05T06:44:50.943Z,16.43
2023-05-05T06:45:46.763Z,16.50
2023-05-05T06:46:42.446Z,16.60
2023-05-05T06:47:37.924Z,16.70
2023-05-05T06:48:33.667Z,16.85
2023-05-05T06:49:29.007Z,17.00
2023-05-05T06:50:25.103Z,17.18
2023-05-05T06:51:20.531Z,17.34
2023-05-05T06:52:15.826Z,17.50
2023-05-05T06:53:11.478Z,17.62
2023-05-05T06:54:06.981Z,17.73
2023-05-05T06:55:02.571Z,17.83
2023-05-05T06:55:58.957Z,17.89
2023-05-05T06:56:54.169Z,17.86
2023-05-05T06:57:50.122Z,17.86
2023-05-05T06:58:45.634Z,17.91
2023-05-05T06:59:41.037Z,17.97
2023-05-05T07:00:36.914Z,18.04
2023-05-05T07:01:32.529Z,18.07
2023-05-05T07:02:28.314Z,18.08
2023-05-05T07:03:23.772Z,18.11
2023-05-05T07:04:19.106Z,18.16
2023-05-05T07:05:14.786Z,18.18
2023-05-05T07:06:10.145Z,18.21
2023-05-05T07:07:05.692Z,18.22
2023-05-05T07:08:01.827Z,18.17
2023-05-05T07:08:57.228Z,18.07
2023-05-05T07:09:53.079Z,18.13
2023-05-05T07:10:48.968Z,18.21
2023-05-05T07:11:44.273Z,18.25
2023-05-05T07:12:40.074Z,18.19
2023-05-05T07:13:35.424Z,18.11
2023-05-05T07:14:31.452Z,18.01
2023-05-05T07:15:28.590Z,17.90
2023-05-05T07:16:22.312Z,17.81
2023-05-05T07:17:17.763Z,17.79
2023-05-05T07:18:12.881Z,17.71
2023-05-05T07:19:07.937Z,17.70
2023-05-05T07:20:08.088Z,17.63
2023-05-05T07:21:03.318Z,17.56
2023-05-05T07:21:58.553Z,17.45
2023-05-05T07:22:54.357Z,17.42
2023-05-05T07:23:49.879Z,17.42
2023-05-05T07:24:45.326Z,17.39
2023-05-05T07:25:41.735Z,17.33
2023-05-05T07:26:36.963Z,17.29
2023-05-05T07:27:32.905Z,17.29
2023-05-05T07:28:28.287Z,17.30
2023-05-05T07:29:23.812Z,17.27
2023-05-05T07:30:20.083Z,17.20
2023-05-05T07:31:15.191Z,17.19
2023-05-05T07:32:10.939Z,17.26
2023-05-05T07:33:06.320Z,17.30
2023-05-05T07:34:01.671Z,17.35
2023-05-05T07:34:57.136Z,17.41
2023-05-05T07:35:52.678Z,17.44
2023-05-05T07:36:48.509Z,17.44
2023-05-05T07:37:43.899Z,17.47
2023-05-05T07:38:39.430Z,17.51
2023-05-05T07:39:35.113Z,17.57
2023-05-05T07:40:30.653Z,17.60
2023-05-05T07:41:26.291Z,17.65
2023-05-05T07:42:21.588Z,17.68
2023-05-05T07:43:16.704Z,17.71
2023-05-05T07:44:11.831Z,17.75
2023-05-05T07:45:06.865Z,17.83
2023-05-05T07:46:06.529Z,17.87
2023-05-05T07:47:01.767Z,17.93
2023-05-05T07:47:57.432Z,18.02
2023-05-05T07:48:52.891Z,18.08
2023-05-05T07:49:48.410Z,18.16
2023-05-05T07:50:44.068Z,18.17
2023-05-05T07:51:40.174Z,18.10
2023-05-05T07:52:46.651Z,18.10
2023-05-05T07:53:32.354Z,18.14
2023-05-05T07:55:50.501Z,17.94
2023-05-05T07:56:45.654Z,18.16
2023-05-05T07:57:41.035Z,18.27
2023-05-05T07:58:36.521Z,18.34
2023-05-05T07:59:31.909Z,18.34
2023-05-05T08:00:27.814Z,18.33
2023-05-05T08:01:23.163Z,18.40
2023-05-05T08:02:18.833Z,18.39
2023-05-05T08:03:14.284Z,18.45
2023-05-05T08:04:09.744Z,18.54
2023-05-05T08:05:05.304Z,18.61
2023-05-05T08:06:00.791Z,18.65
2023-05-05T08:06:56.078Z,18.69
2023-05-05T08:07:51.625Z,18.76
2023-05-05T08:08:46.955Z,18.88
2023-05-05T08:09:42.402Z,18.96
2023-05-05T08:10:37.962Z,19.06
2023-05-05T08:11:33.246Z,19.17
2023-05-05T08:12:28.686Z,19.21
2023-05-05T08:13:24.211Z,19.31
2023-05-05T08:14:19.711Z,19.39
2023-05-05T08:15:15.113Z,19.41
2023-05-05T08:16:10.664Z,19.42
2023-05-05T08:17:06.051Z,19.39
2023-05-05T08:18:01.342Z,19.36
2023-05-05T08:18:56.712Z,19.36
2023-05-05T08:19:52.082Z,19.40
2023-05-05T08:20:47.772Z,19.43
2023-05-05T08:21:43.117Z,19.41
2023-05-05T08:22:38.543Z,19.48
2023-05-05T08:23:33.916Z,19.53
2023-05-05T08:24:29.331Z,19.65
2023-05-05T08:25:24.825Z,19.71
2023-05-05T08:26:20.358Z,19.80
2023-05-05T08:27:15.764Z,19.76
2023-05-05T08:28:11.245Z,19.77
2023-05-05T08:29:06.885Z,19.84
2023-05-05T08:30:02.471Z,19.90
2023-05-05T08:30:57.908Z,19.99
2023-05-05T08:31:53.404Z,20.10
2023-05-05T08:32:48.783Z,20.22
2023-05-05T08:33:44.341Z,20.43
2023-05-05T08:34:39.733Z,20.61
2023-05-05T08:35:35.229Z,20.82
2023-05-05T08:36:30.844Z,21.11
2023-05-05T08:37:26.360Z,21.44
2023-05-05T08:38:21.706Z,21.76
2023-05-05T08:39:17.114Z,21.83
2023-05-05T08:40:12.753Z,21.87
2023-05-05T08:41:08.099Z,21.99
2023-05-05T08:42:03.343Z,22.08
2023-05-05T08:42:58.817Z,22.21
2023-05-05T08:43:54.215Z,22.51
2023-05-05T08:44:49.679Z,22.81
2023-05-05T08:45:45.166Z,23.09
2023-05-05T08:46:40.687Z,23.32
2023-05-05T08:47:36.440Z,23.43
2023-05-05T08:48:31.749Z,23.39
2023-05-05T08:49:27.257Z,23.20
2023-05-05T08:50:22.931Z,23.05
2023-05-05T08:51:18.250Z,22.88
2023-05-05T08:52:13.692Z,22.65
2023-05-05T08:53:09.113Z,22.40
2023-05-05T08:54:04.660Z,22.29
2023-05-05T08:55:00.286Z,22.13
2023-05-05T08:55:55.556Z,21.97
2023-05-05T08:56:51.064Z,21.89
2023-05-05T08:57:46.476Z,21.87
2023-05-05T08:58:41.922Z,21.87
2023-05-05T08:59:37.333Z,21.87
2023-05-05T09:00:33.200Z,21.87
2023-05-05T09:01:28.553Z,21.85
2023-05-05T09:02:24.037Z,21.82
2023-05-05T09:03:19.653Z,21.81
2023-05-05T09:04:15.099Z,21.79
2023-05-05T09:05:10.672Z,21.68
2023-05-05T09:06:06.332Z,21.56
2023-05-05T09:07:01.619Z,21.47
2023-05-05T09:07:57.092Z,21.44
2023-05-05T09:08:52.536Z,21.46
2023-05-05T09:09:47.976Z,21.52
2023-05-05T09:10:43.636Z,21.54
2023-05-05T09:11:38.993Z,21.55
2023-05-05T09:12:34.571Z,21.56
2023-05-05T09:13:30.116Z,21.53
2023-05-05T09:14:25.564Z,21.63
2023-05-05T09:15:21.514Z,21.75
2023-05-05T09:16:16.788Z,21.99
2023-05-05T09:17:12.215Z,22.14
2023-05-05T09:18:07.588Z,22.30
2023-05-05T09:19:03.057Z,22.53
2023-05-05T09:19:58.517Z,22.59
2023-05-05T09:20:54.052Z,22.80
2023-05-05T09:21:49.628Z,22.97
2023-05-05T09:22:45.092Z,23.08
2023-05-05T09:23:40.466Z,23.12
2023-05-05T09:24:36.003Z,23.09
2023-05-05T09:25:31.633Z,22.97
2023-05-05T09:26:27.142Z,22.84
2023-05-05T09:27:22.509Z,22.93
2023-05-05T09:28:17.854Z,23.10
2023-05-05T09:29:13.220Z,23.24
2023-05-05T09:30:08.718Z,23.35
2023-05-05T09:31:04.479Z,23.41
2023-05-05T09:31:59.753Z,23.48
2023-05-05T09:32:55.156Z,23.53
2023-05-05T09:33:50.800Z,23.56
2023-05-05T09:34:46.297Z,23.51
2023-05-05T09:35:41.530Z,23.49
2023-05-05T09:36:37.122Z,23.44
2023-05-05T09:37:32.775Z,23.46
2023-05-05T09:38:28.205Z,23.59
2023-05-05T09:39:23.569Z,23.78
2023-05-05T09:40:19.117Z,23.83
2023-05-05T09:41:14.548Z,24.02
2023-05-05T09:42:09.993Z,24.06
2023-05-05T09:43:05.625Z,24.21
2023-05-05T09:44:01.210Z,24.39
2023-05-05T09:44:57.924Z,24.50
2023-05-05T09:45:52.281Z,24.57
2023-05-05T09:46:47.473Z,24.62
2023-05-05T09:47:42.814Z,24.70
2023-05-05T09:48:38.148Z,24.73
2023-05-05T09:49:33.631Z,24.64
2023-05-05T09:50:29.174Z,24.65
2023-05-05T09:51:24.472Z,24.72
2023-05-05T09:52:19.968Z,24.83
2023-05-05T09:53:15.401Z,24.83
2023-05-05T09:54:10.907Z,24.57
2023-05-05T09:55:06.407Z,24.20
2023-05-05T09:56:01.921Z,23.89
2023-05-05T09:56:57.378Z,23.60
2023-05-05T09:57:52.721Z,23.47
2023-05-05T09:58:48.095Z,23.45
2023-05-05T09:59:43.573Z,23.48
2023-05-05T10:00:39.275Z,23.70
2023-05-05T10:01:34.504Z,23.95
2023-05-05T10:02:30.009Z,24.21
2023-05-05T10:03:25.384Z,24.48
2023-05-05T10:04:20.833Z,24.64
2023-05-05T10:05:16.398Z,24.65
2023-05-05T10:06:11.847Z,24.74
2023-05-05T10:07:07.477Z,24.72
2023-05-05T10:08:02.843Z,24.62
2023-05-05T10:08:58.196Z,24.73
2023-05-05T10:09:53.662Z,24.72
2023-05-05T10:10:49.053Z,24.63
2023-05-05T10:11:44.515Z,24.58
2023-05-05T10:12:39.914Z,24.55
2023-05-05T10:13:35.313Z,24.45
2023-05-05T10:14:30.930Z,24.39
2023-05-05T10:15:26.557Z,24.28
2023-05-05T10:16:22.027Z,24.18
2023-05-05T10:17:17.362Z,24.11
2023-05-05T10:18:12.935Z,24.03
2023-05-05T10:19:08.376Z,23.78
2023-05-05T10:20:04.042Z,23.62
2023-05-05T10:20:59.533Z,23.53
2023-05-05T10:21:55.069Z,23.52
2023-05-05T10:22:50.506Z,23.49
2023-05-05T10:23:46.005Z,23.43
2023-05-05T10:24:41.646Z,23.46
2023-05-05T10:25:36.854Z,23.40
2023-05-05T10:26:32.340Z,23.46
2023-05-05T10:27:27.946Z,23.63
2023-05-05T10:28:23.576Z,23.87
2023-05-05T10:29:19.099Z,23.98
2023-05-05T10:30:14.666Z,24.07
2023-05-05T10:31:19.997Z,24.08
2023-05-05T10:32:27.204Z,24.25
2023-05-05T10:33:17.394Z,24.50
2023-05-05T10:33:57.183Z,24.76
2023-05-05T10:34:51.710Z,25.01
2023-05-05T10:35:47.146Z,25.16
2023-05-05T10:36:42.529Z,25.24
2023-05-05T10:37:37.865Z,25.16
2023-05-05T10:38:33.490Z,25.00
2023-05-05T10:39:29.077Z,24.86
2023-05-05T10:40:24.418Z,24.73
2023-05-05T10:41:20.064Z,24.56
2023-05-05T10:42:15.587Z,24.41
2023-05-05T10:43:11.042Z,24.24
2023-05-05T10:44:06.469Z,24.06
2023-05-05T10:45:01.984Z,23.97
2023-05-05T10:45:57.415Z,23.90
2023-05-05T10:46:52.639Z,23.91
2023-05-05T10:47:48.188Z,24.00
2023-05-05T10:48:43.559Z,24.02
2023-05-05T10:49:39.243Z,24.01
2023-05-05T10:50:34.479Z,23.99
2023-05-05T10:51:39.442Z,23.91
2023-05-05T10:52:26.309Z,24.05
2023-05-05T10:53:20.861Z,24.27
2023-05-05T10:54:16.400Z,24.47
2023-05-05T10:55:11.862Z,24.67
2023-05-05T10:56:07.306Z,24.93
2023-05-05T10:57:02.729Z,25.15
2023-05-05T10:57:58.156Z,25.21
2023-05-05T10:59:00.073Z,25.13
2023-05-05T10:59:50.218Z,24.85
2023-05-05T11:00:44.807Z,24.79
2023-05-05T11:01:40.124Z,24.78
2023-05-05T11:02:35.528Z,24.79
2023-05-05T11:03:30.968Z,24.62
2023-05-05T11:04:26.384Z,24.61
2023-05-05T11:05:21.852Z,24.77
2023-05-05T11:06:17.595Z,24.91
2023-05-05T11:07:14.882Z,25.05
2023-05-05T11:08:08.778Z,25.12
2023-05-05T11:09:04.448Z,25.04
2023-05-05T11:09:59.985Z,25.05
2023-05-05T11:10:55.322Z,25.09
2023-05-05T11:11:50.852Z,25.01
2023-05-05T11:12:46.436Z,25.10
2023-05-05T11:13:42.145Z,25.20
2023-05-05T11:14:37.431Z,25.36
2023-05-05T11:15:32.828Z,25.51
2023-05-05T11:16:28.197Z,25.51
2023-05-05T11:17:23.869Z,25.39
2023-05-05T11:18:19.367Z,25.45
2023-05-05T11:19:14.611Z,25.60
2023-05-05T11:20:10.142Z,25.68
2023-05-05T11:21:05.492Z,25.85
2023-05-05T11:22:01.070Z,25.93
2023-05-05T11:22:56.426Z,25.92
2023-05-05T11:23:52.254Z,25.59
2023-05-05T11:24:47.621Z,25.55
2023-05-05T11:25:43.109Z,25.63
2023-05-05T11:26:38.446Z,25.71
2023-05-05T11:27:33.932Z,25.71
2023-05-05T11:28:29.319Z,25.84
2023-05-05T11:29:24.927Z,25.81
2023-05-05T11:30:20.352Z,25.58
2023-05-05T11:31:15.718Z,25.35
2023-05-05T11:32:11.194Z,25.20
2023-05-05T11:33:06.748Z,25.16
2023-05-05T11:34:02.071Z,25.20
2023-05-05T11:34:57.516Z,24.97
2023-05-05T11:35:52.907Z,24.64
2023-05-05T11:36:48.370Z,24.42
2023-05-05T11:37:43.713Z,24.53
2023-05-05T11:38:39.444Z,24.67
2023-05-05T11:39:34.781Z,24.87
2023-05-05T11:40:30.274Z,25.07
2023-05-05T11:41:25.508Z,25.26
2023-05-05T11:42:20.976Z,25.21
2023-05-05T11:43:16.658Z,25.13
2023-05-05T11:44:11.872Z,24.97
2023-05-05T11:45:07.474Z,24.86
2023-05-05T11:46:02.860Z,24.73
2023-05-05T11:47:01.077Z,24.59
2023-05-05T11:47:53.726Z,24.45
2023-05-05T11:48:49.267Z,24.31
2023-05-05T11:49:44.468Z,24.15
2023-05-05T11:50:40.085Z,24.12
2023-05-05T11:51:35.326Z,24.30
2023-05-05T11:52:30.797Z,24.33
2023-05-05T11:53:26.269Z,24.47
2023-05-05T11:54:21.937Z,24.54
2023-05-05T11:55:17.375Z,24.66
2023-05-05T11:56:12.877Z,24.75
2023-05-05T11:57:08.357Z,24.68
2023-05-05T11:58:03.838Z,24.37